createdAt,value
2019-05-30T00:07:48.015Z,9.10
2019-05-30T00:17:56.636Z,8.70
2019-05-30T00:28:04.939Z,12.33
2019-05-30T00:38:09.256Z,11.23
2019-05-30T00:48:14.572Z,9.10
2019-05-30T00:58:21.305Z,12.80
2019-05-30T01:08:27.181Z,9.17
2019-05-30T01:18:32.739Z,12.23
2019-05-30T01:28:38.254Z,10.07
2019-05-30T01:38:43.434Z,10.23
2019-05-30T01:48:48.334Z,12.17
2019-05-30T01:58:53.315Z,13.53
2019-05-30T02:09:00.910Z,12.27
2019-05-30T02:19:11.253Z,10.27
2019-05-30T02:29:18.755Z,12.30
2019-05-30T02:39:24.276Z,12.23
2019-05-30T02:49:29.828Z,12.03
2019-05-30T02:59:36.092Z,13.17
2019-05-30T03:09:41.217Z,11.57
2019-05-30T03:19:46.365Z,11.93
2019-05-30T03:29:51.258Z,13.50
2019-05-30T03:39:56.167Z,16.90
2019-05-30T03:50:01.853Z,16.30
2019-05-30T04:00:12.008Z,19.10
2019-05-30T04:10:19.813Z,21.27
2019-05-30T04:20:25.022Z,18.57
2019-05-30T04:30:29.988Z,32.67
2019-05-30T04:40:34.968Z,15.23
2019-05-30T04:50:39.901Z,11.53
2019-05-30T05:00:44.818Z,17.13
2019-05-30T05:10:49.725Z,10.47
2019-05-30T05:20:54.733Z,20.67
2019-05-30T05:30:59.935Z,20.77
2019-05-30T05:41:06.661Z,18.73
2019-05-30T05:51:11.688Z,11.23
2019-05-30T06:01:19.260Z,11.17
2019-05-30T06:11:24.695Z,22.60
2019-05-30T06:21:30.904Z,8.90
2019-05-30T06:31:35.879Z,4.83
2019-05-30T06:41:40.768Z,3.83
2019-05-30T06:51:45.671Z,5.73
2019-05-30T07:01:52.333Z,7.23
2019-05-30T07:11:57.556Z,6.27
2019-05-30T07:22:02.597Z,6.60
2019-05-30T07:32:07.534Z,6.67
2019-05-30T07:42:14.714Z,6.57
2019-05-30T07:52:33.420Z,9.63
2019-05-30T08:02:43.732Z,7.57
2019-05-30T08:12:51.869Z,12.13
2019-05-30T08:23:03.905Z,9.50
2019-05-30T08:33:08.805Z,13.03
2019-05-30T08:43:13.675Z,9.23
2019-05-30T08:53:18.575Z,10.87
2019-05-30T09:03:24.606Z,7.53
2019-05-30T09:13:30.586Z,10.47
2019-05-30T09:23:38.292Z,3.73
2019-05-30T09:33:43.016Z,5.30
2019-05-30T09:43:48.192Z,9.03
2019-05-30T09:53:53.105Z,6.70
2019-05-30T10:04:00.250Z,5.10
2019-05-30T10:14:05.401Z,6.77
2019-05-30T10:24:10.550Z,5.03
2019-05-30T10:34:15.445Z,6.47
2019-05-30T10:44:20.440Z,5.87
2019-05-30T10:54:25.548Z,7.23
2019-05-30T11:04:31.755Z,5.37
2019-05-30T11:14:36.644Z,3.60
2019-05-30T11:24:42.998Z,6.63
2019-05-30T11:34:49.001Z,9.47
2019-05-30T11:44:59.955Z,6.70
2019-05-30T11:55:08.834Z,8.43
2019-05-30T12:05:17.562Z,5.17
2019-05-30T12:15:23.737Z,23.57
2019-05-30T12:25:30.512Z,7.30
2019-05-30T12:35:37.481Z,6.63
2019-05-30T12:45:43.322Z,7.73
2019-05-30T12:55:48.826Z,11.07
2019-05-30T13:05:55.052Z,11.67
2019-05-30T13:16:01.849Z,8.03
2019-05-30T13:26:08.325Z,13.20
2019-05-30T13:36:13.995Z,15.00
2019-05-30T13:46:19.551Z,16.83
2019-05-30T13:56:26.207Z,15.60
2019-05-30T14:06:33.034Z,15.80
2019-05-30T14:16:38.605Z,22.77
2019-05-30T14:26:44.918Z,27.83
2019-05-30T14:36:50.442Z,14.13
2019-05-30T14:46:56.250Z,19.00
2019-05-30T14:57:02.774Z,18.83
2019-05-30T15:07:09.311Z,17.10
2019-05-30T15:17:18.612Z,16.37
2019-05-30T15:27:23.815Z,180.97
2019-05-30T15:37:29.350Z,91.20
2019-05-30T15:47:35.120Z,59.10
2019-05-30T15:57:42.005Z,87.30
2019-05-30T16:07:50.405Z,29.70
2019-05-30T16:18:00.907Z,36.67
2019-05-30T16:28:09.468Z,40.80
2019-05-30T16:38:14.455Z,32.47
2019-05-30T16:48:24.711Z,29.77
2019-05-30T16:58:29.937Z,32.73
2019-05-30T17:08:35.970Z,41.37
2019-05-30T17:18:41.722Z,28.80
2019-05-30T17:28:48.749Z,23.97
2019-05-30T17:38:54.214Z,31.33
2019-05-30T17:48:59.382Z,34.77
2019-05-30T17:59:04.731Z,35.83
2019-05-30T18:09:10.196Z,42.30
2019-05-30T18:19:15.670Z,43.80
2019-05-30T18:29:22.145Z,36.87
2019-05-30T18:39:28.622Z,36.50
2019-05-30T18:49:33.832Z,51.20
2019-05-30T18:59:39.119Z,51.27
2019-05-30T19:09:44.526Z,53.33
2019-05-30T19:19:51.322Z,50.33
2019-05-30T19:29:57.295Z,50.63
2019-05-30T19:40:03.866Z,54.07
2019-05-30T19:50:11.413Z,63.50
2019-05-30T20:00:18.494Z,63.47
2019-05-30T20:10:24.056Z,50.30
2019-05-30T20:20:29.663Z,50.13
2019-05-30T20:30:35.395Z,46.33
2019-05-30T20:40:40.996Z,51.47
2019-05-30T20:50:47.677Z,71.77
2019-05-30T21:00:55.336Z,57.83
2019-05-30T21:11:03.241Z,57.37
2019-05-30T21:21:09.484Z,58.90
2019-05-30T21:31:14.765Z,50.70
2019-05-30T21:41:20.250Z,54.67
2019-05-30T21:51:25.683Z,54.70
2019-05-30T22:01:33.721Z,47.27
2019-05-30T22:11:39.151Z,47.33
2019-05-30T22:21:44.256Z,42.53
2019-05-30T22:31:50.792Z,39.67
2019-05-30T22:41:56.554Z,33.50
2019-05-30T22:52:02.071Z,39.30
2019-05-30T23:02:07.630Z,32.90
2019-05-30T23:12:13.035Z,35.43
2019-05-30T23:22:18.477Z,33.97
2019-05-30T23:32:23.880Z,29.27
2019-05-30T23:42:29.514Z,31.37
2019-05-30T23:52:36.006Z,34.10
